sensor_id;sensor_type;location;lat;lon;timestamp;temperature;humidity
3626;DHT22;1827;50.534;8.316;2022-08-01T00:01:37;19.50;99.90
3626;DHT22;1827;50.534;8.316;2022-08-01T00:04:03;19.40;99.90
3626;DHT22;1827;50.534;8.316;2022-08-01T00:06:29;19.40;99.90
3626;DHT22;1827;50.534;8.316;2022-08-01T00:08:55;19.40;99.90
3626;DHT22;1827;50.534;8.316;2022-08-01T00:11:20;19.40;99.90
3626;DHT22;1827;50.534;8.316;2022-08-01T00:13:46;19.40;99.90
3626;DHT22;1827;50.534;8.316;2022-08-01T00:16:12;19.40;99.90
3626;DHT22;1827;50.534;8.316;2022-08-01T00:18:38;19.50;99.90
3626;DHT22;1827;50.534;8.316;2022-08-01T00:21:04;19.40;99.90
3626;DHT22;1827;50.534;8.316;2022-08-01T00:23:30;19.40;99.90
3626;DHT22;1827;50.534;8.316;2022-08-01T00:25:56;19.40;99.90
3626;DHT22;1827;50.534;8.316;2022-08-01T00:28:22;19.40;99.90
3626;DHT22;1827;50.534;8.316;2022-08-01T00:30:48;19.30;99.90
3626;DHT22;1827;50.534;8.316;2022-08-01T00:33:14;19.10;99.90
3626;DHT22;1827;50.534;8.316;2022-08-01T00:35:39;19.10;99.90
3626;DHT22;1827;50.534;8.316;2022-08-01T00:38:05;19.00;99.90
3626;DHT22;1827;50.534;8.316;2022-08-01T00:40:31;18.90;99.90
3626;DHT22;1827;50.534;8.316;2022-08-01T00:42:57;18.90;99.90
3626;DHT22;1827;50.534;8.316;2022-08-01T00:45:22;18.90;99.90
3626;DHT22;1827;50.534;8.316;2022-08-01T00:47:48;19.00;99.90
3626;DHT22;1827;50.534;8.316;2022-08-01T00:50:14;18.90;99.90
3626;DHT22;1827;50.534;8.316;2022-08-01T00:52:41;18.90;99.90
3626;DHT22;1827;50.534;8.316;2022-08-01T00:55:08;18.80;99.90
3626;DHT22;1827;50.534;8.316;2022-08-01T00:57:34;18.80;99.90
3626;DHT22;1827;50.534;8.316;2022-08-01T01:00:00;18.80;99.90
3626;DHT22;1827;50.534;8.316;2022-08-01T01:02:26;18.80;99.90
3626;DHT22;1827;50.534;8.316;2022-08-01T01:04:52;18.90;99.90
3626;DHT22;1827;50.534;8.316;2022-08-01T01:10:50;18.80;99.90
3626;DHT22;1827;50.534;8.316;2022-08-01T01:13:22;18.70;99.90
3626;DHT22;1827;50.534;8.316;2022-08-01T01:16:01;18.60;99.90
3626;DHT22;1827;50.534;8.316;2022-08-01T01:18:35;18.60;99.90
3626;DHT22;1827;50.534;8.316;2022-08-01T01:29:31;18.30;99.90
3626;DHT22;1827;50.534;8.316;2022-08-01T01:32:09;18.30;99.90
3626;DHT22;1827;50.534;8.316;2022-08-01T01:34:40;18.30;99.90
3626;DHT22;1827;50.534;8.316;2022-08-01T01:37:11;18.40;99.90
3626;DHT22;1827;50.534;8.316;2022-08-01T01:39:39;18.30;99.90
3626;DHT22;1827;50.534;8.316;2022-08-01T01:42:06;18.30;99.90
3626;DHT22;1827;50.534;8.316;2022-08-01T01:44:34;18.30;99.90
3626;DHT22;1827;50.534;8.316;2022-08-01T01:47:01;18.30;99.90
3626;DHT22;1827;50.534;8.316;2022-08-01T01:49:28;18.20;99.90
3626;DHT22;1827;50.534;8.316;2022-08-01T01:51:57;18.10;99.90
3626;DHT22;1827;50.534;8.316;2022-08-01T01:54:33;18.10;99.90
3626;DHT22;1827;50.534;8.316;2022-08-01T01:57:02;18.00;99.90
3626;DHT22;1827;50.534;8.316;2022-08-01T01:59:32;18.00;99.90
3626;DHT22;1827;50.534;8.316;2022-08-01T02:01:59;18.00;99.90
3626;DHT22;1827;50.534;8.316;2022-08-01T02:04:27;18.10;99.90
3626;DHT22;1827;50.534;8.316;2022-08-01T02:06:54;18.20;99.90
3626;DHT22;1827;50.534;8.316;2022-08-01T02:09:21;18.20;99.90
3626;DHT22;1827;50.534;8.316;2022-08-01T02:11:49;18.30;99.90
3626;DHT22;1827;50.534;8.316;2022-08-01T02:14:17;18.30;99.90
3626;DHT22;1827;50.534;8.316;2022-08-01T02:16:47;18.50;99.90
3626;DHT22;1827;50.534;8.316;2022-08-01T02:19:14;18.50;99.90
3626;DHT22;1827;50.534;8.316;2022-08-01T02:21:54;18.50;99.90
3626;DHT22;1827;50.534;8.316;2022-08-01T02:27:00;18.50;99.90
3626;DHT22;1827;50.534;8.316;2022-08-01T02:29:50;18.50;99.90
3626;DHT22;1827;50.534;8.316;2022-08-01T02:32:25;18.50;99.90
3626;DHT22;1827;50.534;8.316;2022-08-01T02:34:53;18.50;99.90
3626;DHT22;1827;50.534;8.316;2022-08-01T02:37:22;18.60;99.90
3626;DHT22;1827;50.534;8.316;2022-08-01T02:39:52;18.60;99.90
3626;DHT22;1827;50.534;8.316;2022-08-01T02:42:20;18.70;99.90
3626;DHT22;1827;50.534;8.316;2022-08-01T02:44:48;18.70;99.90
3626;DHT22;1827;50.534;8.316;2022-08-01T02:47:15;18.80;99.90
3626;DHT22;1827;50.534;8.316;2022-08-01T02:49:45;18.90;99.90
3626;DHT22;1827;50.534;8.316;2022-08-01T02:52:15;18.90;99.90
3626;DHT22;1827;50.534;8.316;2022-08-01T02:54:44;19.00;99.90
3626;DHT22;1827;50.534;8.316;2022-08-01T02:57:11;19.00;99.90
3626;DHT22;1827;50.534;8.316;2022-08-01T02:59:38;19.00;99.90
3626;DHT22;1827;50.534;8.316;2022-08-01T03:02:05;19.00;99.90
3626;DHT22;1827;50.534;8.316;2022-08-01T03:04:38;19.10;99.90
3626;DHT22;1827;50.534;8.316;2022-08-01T03:07:06;19.10;99.90
3626;DHT22;1827;50.534;8.316;2022-08-01T03:09:36;19.10;99.90
3626;DHT22;1827;50.534;8.316;2022-08-01T03:12:06;19.10;99.90
3626;DHT22;1827;50.534;8.316;2022-08-01T03:14:36;19.10;99.90
3626;DHT22;1827;50.534;8.316;2022-08-01T03:17:04;19.20;99.90
3626;DHT22;1827;50.534;8.316;2022-08-01T03:19:31;19.20;99.90
3626;DHT22;1827;50.534;8.316;2022-08-01T03:21:57;19.20;99.90
3626;DHT22;1827;50.534;8.316;2022-08-01T03:24:25;19.10;99.90
3626;DHT22;1827;50.534;8.316;2022-08-01T03:26:52;19.10;99.90
3626;DHT22;1827;50.534;8.316;2022-08-01T03:29:22;19.10;99.90
3626;DHT22;1827;50.534;8.316;2022-08-01T03:31:49;19.00;99.90
3626;DHT22;1827;50.534;8.316;2022-08-01T03:34:16;19.00;99.90
3626;DHT22;1827;50.534;8.316;2022-08-01T03:39:13;18.90;99.90
3626;DHT22;1827;50.534;8.316;2022-08-01T03:41:43;18.90;99.90
3626;DHT22;1827;50.534;8.316;2022-08-01T03:44:15;18.90;99.90
3626;DHT22;1827;50.534;8.316;2022-08-01T03:46:47;18.90;99.90
3626;DHT22;1827;50.534;8.316;2022-08-01T03:49:25;18.90;99.90
3626;DHT22;1827;50.534;8.316;2022-08-01T03:51:52;18.90;99.90
3626;DHT22;1827;50.534;8.316;2022-08-01T03:54:24;18.90;99.90
3626;DHT22;1827;50.534;8.316;2022-08-01T03:56:54;19.00;99.90
3626;DHT22;1827;50.534;8.316;2022-08-01T03:59:20;19.00;99.90
3626;DHT22;1827;50.534;8.316;2022-08-01T04:01:47;19.10;99.90
3626;DHT22;1827;50.534;8.316;2022-08-01T04:04:14;19.20;99.90
3626;DHT22;1827;50.534;8.316;2022-08-01T04:06:40;19.20;99.90
3626;DHT22;1827;50.534;8.316;2022-08-01T04:09:07;19.20;99.90
3626;DHT22;1827;50.534;8.316;2022-08-01T04:11:33;19.30;99.90
3626;DHT22;1827;50.534;8.316;2022-08-01T04:13:59;19.30;99.90
3626;DHT22;1827;50.534;8.316;2022-08-01T04:16:25;19.40;99.90
3626;DHT22;1827;50.534;8.316;2022-08-01T04:18:51;19.40;99.90
3626;DHT22;1827;50.534;8.316;2022-08-01T04:21:25;19.40;99.90
3626;DHT22;1827;50.534;8.316;2022-08-01T04:24:12;19.60;99.90
3626;DHT22;1827;50.534;8.316;2022-08-01T04:26:40;19.50;99.90
3626;DHT22;1827;50.534;8.316;2022-08-01T04:29:08;19.50;99.90
3626;DHT22;1827;50.534;8.316;2022-08-01T04:31:36;19.60;99.90
3626;DHT22;1827;50.534;8.316;2022-08-01T04:34:04;19.60;99.90
3626;DHT22;1827;50.534;8.316;2022-08-01T04:36:33;19.50;99.90
3626;DHT22;1827;50.534;8.316;2022-08-01T04:39:01;19.50;99.90
3626;DHT22;1827;50.534;8.316;2022-08-01T04:41:27;19.50;99.90
3626;DHT22;1827;50.534;8.316;2022-08-01T04:43:55;19.50;99.90
3626;DHT22;1827;50.534;8.316;2022-08-01T04:46:24;19.50;99.90
3626;DHT22;1827;50.534;8.316;2022-08-01T04:48:52;19.50;99.90
3626;DHT22;1827;50.534;8.316;2022-08-01T04:51:20;19.50;99.90
3626;DHT22;1827;50.534;8.316;2022-08-01T04:53:48;19.40;99.90
3626;DHT22;1827;50.534;8.316;2022-08-01T04:56:17;19.50;99.90
3626;DHT22;1827;50.534;8.316;2022-08-01T04:58:43;19.50;99.90
3626;DHT22;1827;50.534;8.316;2022-08-01T05:01:10;19.50;99.90
3626;DHT22;1827;50.534;8.316;2022-08-01T05:03:36;19.50;99.90
3626;DHT22;1827;50.534;8.316;2022-08-01T05:06:03;19.30;99.90
3626;DHT22;1827;50.534;8.316;2022-08-01T05:08:28;19.30;99.90
3626;DHT22;1827;50.534;8.316;2022-08-01T05:10:55;19.20;99.90
3626;DHT22;1827;50.534;8.316;2022-08-01T05:13:21;19.20;99.90
3626;DHT22;1827;50.534;8.316;2022-08-01T05:15:47;19.20;99.90
3626;DHT22;1827;50.534;8.316;2022-08-01T05:18:13;19.20;99.90
3626;DHT22;1827;50.534;8.316;2022-08-01T05:20:40;19.30;99.90
3626;DHT22;1827;50.534;8.316;2022-08-01T05:23:06;19.30;99.90
3626;DHT22;1827;50.534;8.316;2022-08-01T05:25:32;19.20;99.90
3626;DHT22;1827;50.534;8.316;2022-08-01T05:27:59;19.20;99.90
3626;DHT22;1827;50.534;8.316;2022-08-01T05:30:25;19.30;99.90
3626;DHT22;1827;50.534;8.316;2022-08-01T05:32:51;19.20;99.90
3626;DHT22;1827;50.534;8.316;2022-08-01T05:35:17;19.30;99.90
3626;DHT22;1827;50.534;8.316;2022-08-01T05:37:42;19.30;99.90
3626;DHT22;1827;50.534;8.316;2022-08-01T05:40:09;19.30;99.90
3626;DHT22;1827;50.534;8.316;2022-08-01T05:42:34;19.40;99.90
3626;DHT22;1827;50.534;8.316;2022-08-01T05:45:00;19.50;99.90
3626;DHT22;1827;50.534;8.316;2022-08-01T05:47:26;19.50;99.90
3626;DHT22;1827;50.534;8.316;2022-08-01T05:49:52;19.40;99.90
3626;DHT22;1827;50.534;8.316;2022-08-01T05:52:17;19.40;99.90
3626;DHT22;1827;50.534;8.316;2022-08-01T05:54:44;19.40;99.90
3626;DHT22;1827;50.534;8.316;2022-08-01T05:57:09;19.60;99.90
3626;DHT22;1827;50.534;8.316;2022-08-01T05:59:35;19.70;99.90
3626;DHT22;1827;50.534;8.316;2022-08-01T06:02:01;19.70;99.90
3626;DHT22;1827;50.534;8.316;2022-08-01T06:04:27;19.70;99.90
3626;DHT22;1827;50.534;8.316;2022-08-01T06:06:53;19.70;99.90
3626;DHT22;1827;50.534;8.316;2022-08-01T06:09:19;19.70;99.90
3626;DHT22;1827;50.534;8.316;2022-08-01T06:11:44;19.90;99.90
3626;DHT22;1827;50.534;8.316;2022-08-01T06:14:10;20.00;99.90
3626;DHT22;1827;50.534;8.316;2022-08-01T06:16:36;20.10;99.90
3626;DHT22;1827;50.534;8.316;2022-08-01T06:19:02;20.30;99.90
3626;DHT22;1827;50.534;8.316;2022-08-01T06:21:28;20.20;99.90
3626;DHT22;1827;50.534;8.316;2022-08-01T06:23:54;20.40;99.90
3626;DHT22;1827;50.534;8.316;2022-08-01T06:26:20;20.50;99.90
3626;DHT22;1827;50.534;8.316;2022-08-01T06:28:46;20.70;99.90
3626;DHT22;1827;50.534;8.316;2022-08-01T06:31:11;20.90;99.90
3626;DHT22;1827;50.534;8.316;2022-08-01T06:33:39;21.00;99.90
3626;DHT22;1827;50.534;8.316;2022-08-01T06:36:04;21.10;99.90
3626;DHT22;1827;50.534;8.316;2022-08-01T06:38:30;21.10;99.90
3626;DHT22;1827;50.534;8.316;2022-08-01T06:40:56;21.40;99.90
3626;DHT22;1827;50.534;8.316;2022-08-01T06:43:22;21.50;99.90
3626;DHT22;1827;50.534;8.316;2022-08-01T06:45:48;21.60;99.90
3626;DHT22;1827;50.534;8.316;2022-08-01T06:48:14;21.80;99.90
3626;DHT22;1827;50.534;8.316;2022-08-01T06:50:40;21.90;99.90
3626;DHT22;1827;50.534;8.316;2022-08-01T06:53:06;21.90;99.90
3626;DHT22;1827;50.534;8.316;2022-08-01T06:55:32;21.90;99.90
3626;DHT22;1827;50.534;8.316;2022-08-01T06:57:57;22.00;99.90
3626;DHT22;1827;50.534;8.316;2022-08-01T07:00:24;21.80;99.90
3626;DHT22;1827;50.534;8.316;2022-08-01T07:02:52;21.80;99.90
3626;DHT22;1827;50.534;8.316;2022-08-01T07:05:19;21.90;99.90
3626;DHT22;1827;50.534;8.316;2022-08-01T07:07:45;21.90;99.90
3626;DHT22;1827;50.534;8.316;2022-08-01T07:10:11;21.80;99.90
3626;DHT22;1827;50.534;8.316;2022-08-01T07:12:37;21.70;99.90
3626;DHT22;1827;50.534;8.316;2022-08-01T07:15:08;21.70;99.90
3626;DHT22;1827;50.534;8.316;2022-08-01T07:17:41;21.90;99.90
3626;DHT22;1827;50.534;8.316;2022-08-01T07:20:09;22.00;99.90
3626;DHT22;1827;50.534;8.316;2022-08-01T07:22:36;22.00;99.90
3626;DHT22;1827;50.534;8.316;2022-08-01T07:25:03;22.20;99.90
3626;DHT22;1827;50.534;8.316;2022-08-01T07:27:30;22.30;99.90
3626;DHT22;1827;50.534;8.316;2022-08-01T07:29:55;22.30;99.90
3626;DHT22;1827;50.534;8.316;2022-08-01T07:32:21;22.60;99.90
3626;DHT22;1827;50.534;8.316;2022-08-01T07:34:47;22.90;99.90
3626;DHT22;1827;50.534;8.316;2022-08-01T07:37:13;23.30;99.90
3626;DHT22;1827;50.534;8.316;2022-08-01T07:39:38;23.40;99.90
3626;DHT22;1827;50.534;8.316;2022-08-01T07:42:04;23.50;99.90
3626;DHT22;1827;50.534;8.316;2022-08-01T07:44:30;23.40;99.90
3626;DHT22;1827;50.534;8.316;2022-08-01T07:46:56;23.00;99.90
3626;DHT22;1827;50.534;8.316;2022-08-01T07:49:22;23.00;99.90
3626;DHT22;1827;50.534;8.316;2022-08-01T07:51:48;23.20;99.90
3626;DHT22;1827;50.534;8.316;2022-08-01T07:54:13;23.30;99.90
3626;DHT22;1827;50.534;8.316;2022-08-01T07:56:39;23.50;99.90
3626;DHT22;1827;50.534;8.316;2022-08-01T07:59:05;23.60;99.90
3626;DHT22;1827;50.534;8.316;2022-08-01T08:01:31;23.70;99.90
3626;DHT22;1827;50.534;8.316;2022-08-01T08:03:56;23.90;99.90
3626;DHT22;1827;50.534;8.316;2022-08-01T08:06:22;24.30;99.90
3626;DHT22;1827;50.534;8.316;2022-08-01T08:08:48;24.70;99.90
3626;DHT22;1827;50.534;8.316;2022-08-01T08:11:14;24.40;99.90
3626;DHT22;1827;50.534;8.316;2022-08-01T08:13:40;24.00;99.90
3626;DHT22;1827;50.534;8.316;2022-08-01T08:16:06;23.80;99.90
3626;DHT22;1827;50.534;8.316;2022-08-01T08:18:31;23.90;99.90
3626;DHT22;1827;50.534;8.316;2022-08-01T08:20:57;23.70;99.90
3626;DHT22;1827;50.534;8.316;2022-08-01T08:23:23;24.00;99.90
3626;DHT22;1827;50.534;8.316;2022-08-01T08:26:07;24.20;99.90
3626;DHT22;1827;50.534;8.316;2022-08-01T08:28:33;24.80;99.90
3626;DHT22;1827;50.534;8.316;2022-08-01T08:30:59;25.50;99.90
3626;DHT22;1827;50.534;8.316;2022-08-01T08:33:25;25.80;99.90
3626;DHT22;1827;50.534;8.316;2022-08-01T08:35:50;25.30;99.90
3626;DHT22;1827;50.534;8.316;2022-08-01T08:38:16;25.70;99.90
3626;DHT22;1827;50.534;8.316;2022-08-01T08:40:42;25.70;99.90
3626;DHT22;1827;50.534;8.316;2022-08-01T08:43:08;26.20;99.90
3626;DHT22;1827;50.534;8.316;2022-08-01T08:45:34;26.50;99.90
3626;DHT22;1827;50.534;8.316;2022-08-01T08:48:00;26.80;99.90
3626;DHT22;1827;50.534;8.316;2022-08-01T08:50:27;26.30;99.90
3626;DHT22;1827;50.534;8.316;2022-08-01T08:52:54;25.60;99.90
3626;DHT22;1827;50.534;8.316;2022-08-01T08:55:21;25.10;99.90
3626;DHT22;1827;50.534;8.316;2022-08-01T08:57:48;25.10;99.90
3626;DHT22;1827;50.534;8.316;2022-08-01T09:00:15;26.00;99.90
3626;DHT22;1827;50.534;8.316;2022-08-01T09:02:45;26.90;99.90
3626;DHT22;1827;50.534;8.316;2022-08-01T09:05:12;27.60;99.90
3626;DHT22;1827;50.534;8.316;2022-08-01T09:07:38;27.70;99.90
3626;DHT22;1827;50.534;8.316;2022-08-01T09:10:05;28.40;99.90
3626;DHT22;1827;50.534;8.316;2022-08-01T09:12:31;27.90;99.90
3626;DHT22;1827;50.534;8.316;2022-08-01T09:14:58;27.30;99.90
3626;DHT22;1827;50.534;8.316;2022-08-01T09:17:24;26.70;99.90
3626;DHT22;1827;50.534;8.316;2022-08-01T09:19:53;26.40;99.90
3626;DHT22;1827;50.534;8.316;2022-08-01T09:22:21;26.70;99.90
3626;DHT22;1827;50.534;8.316;2022-08-01T09:25:09;27.10;99.90
3626;DHT22;1827;50.534;8.316;2022-08-01T09:27:39;26.70;99.90
3626;DHT22;1827;50.534;8.316;2022-08-01T09:30:16;26.60;99.90
3626;DHT22;1827;50.534;8.316;2022-08-01T09:32:55;27.00;99.90
3626;DHT22;1827;50.534;8.316;2022-08-01T09:35:35;27.10;99.90
3626;DHT22;1827;50.534;8.316;2022-08-01T09:40:58;27.30;99.90
3626;DHT22;1827;50.534;8.316;2022-08-01T09:43:29;27.60;99.90
3626;DHT22;1827;50.534;8.316;2022-08-01T09:45:56;27.90;99.90
3626;DHT22;1827;50.534;8.316;2022-08-01T09:48:22;28.60;99.90
3626;DHT22;1827;50.534;8.316;2022-08-01T09:50:52;29.00;99.90
3626;DHT22;1827;50.534;8.316;2022-08-01T09:53:18;29.90;99.90
3626;DHT22;1827;50.534;8.316;2022-08-01T09:55:44;30.10;99.90
3626;DHT22;1827;50.534;8.316;2022-08-01T09:58:11;29.00;99.90
3626;DHT22;1827;50.534;8.316;2022-08-01T10:00:38;29.10;99.90
3626;DHT22;1827;50.534;8.316;2022-08-01T10:03:25;28.80;99.90
3626;DHT22;1827;50.534;8.316;2022-08-01T10:05:51;28.90;99.90
3626;DHT22;1827;50.534;8.316;2022-08-01T10:08:19;29.30;99.90
3626;DHT22;1827;50.534;8.316;2022-08-01T10:11:08;29.60;99.90
3626;DHT22;1827;50.534;8.316;2022-08-01T10:13:34;29.90;99.90
3626;DHT22;1827;50.534;8.316;2022-08-01T10:16:01;30.10;99.90
3626;DHT22;1827;50.534;8.316;2022-08-01T10:18:31;29.70;99.90
3626;DHT22;1827;50.534;8.316;2022-08-01T10:20:57;30.50;99.90
3626;DHT22;1827;50.534;8.316;2022-08-01T10:23:30;28.90;99.90
3626;DHT22;1827;50.534;8.316;2022-08-01T10:25:58;29.90;99.90
3626;DHT22;1827;50.534;8.316;2022-08-01T10:28:25;30.20;99.90
3626;DHT22;1827;50.534;8.316;2022-08-01T10:30:52;29.40;99.90
3626;DHT22;1827;50.534;8.316;2022-08-01T10:33:20;30.30;99.90
3626;DHT22;1827;50.534;8.316;2022-08-01T10:35:47;29.40;99.90
3626;DHT22;1827;50.534;8.316;2022-08-01T10:38:13;29.20;99.90
3626;DHT22;1827;50.534;8.316;2022-08-01T10:40:41;28.80;99.90
3626;DHT22;1827;50.534;8.316;2022-08-01T10:43:10;28.70;99.90
3626;DHT22;1827;50.534;8.316;2022-08-01T10:45:36;29.00;99.90
3626;DHT22;1827;50.534;8.316;2022-08-01T10:48:27;29.60;99.90
3626;DHT22;1827;50.534;8.316;2022-08-01T10:50:58;30.60;99.90
3626;DHT22;1827;50.534;8.316;2022-08-01T10:53:28;29.70;99.90
3626;DHT22;1827;50.534;8.316;2022-08-01T10:58:37;31.40;99.90
3626;DHT22;1827;50.534;8.316;2022-08-01T11:01:26;31.20;99.90
3626;DHT22;1827;50.534;8.316;2022-08-01T11:07:05;31.40;99.90
3626;DHT22;1827;50.534;8.316;2022-08-01T11:09:39;31.20;99.90
3626;DHT22;1827;50.534;8.316;2022-08-01T11:12:11;31.60;99.90
3626;DHT22;1827;50.534;8.316;2022-08-01T11:17:35;31.20;99.90
3626;DHT22;1827;50.534;8.316;2022-08-01T11:22:31;30.60;99.90
3626;DHT22;1827;50.534;8.316;2022-08-01T11:24:57;31.20;99.90
3626;DHT22;1827;50.534;8.316;2022-08-01T11:27:31;31.50;99.90
3626;DHT22;1827;50.534;8.316;2022-08-01T11:35:12;29.90;99.90
3626;DHT22;1827;50.534;8.316;2022-08-01T11:37:37;29.60;99.90
3626;DHT22;1827;50.534;8.316;2022-08-01T11:40:21;30.00;99.90
3626;DHT22;1827;50.534;8.316;2022-08-01T11:42:49;30.40;99.90
3626;DHT22;1827;50.534;8.316;2022-08-01T11:45:15;31.10;99.90
3626;DHT22;1827;50.534;8.316;2022-08-01T11:47:51;31.50;99.90
3626;DHT22;1827;50.534;8.316;2022-08-01T11:50:37;31.80;99.90
3626;DHT22;1827;50.534;8.316;2022-08-01T11:53:04;31.60;99.20
3626;DHT22;1827;50.534;8.316;2022-08-01T11:55:31;31.00;99.60
3626;DHT22;1827;50.534;8.316;2022-08-01T11:58:07;30.10;98.90
3626;DHT22;1827;50.534;8.316;2022-08-01T12:00:33;29.90;99.90
3626;DHT22;1827;50.534;8.316;2022-08-01T12:03:04;29.50;99.90
3626;DHT22;1827;50.534;8.316;2022-08-01T12:05:31;30.00;99.90
3626;DHT22;1827;50.534;8.316;2022-08-01T12:08:00;30.80;99.90
3626;DHT22;1827;50.534;8.316;2022-08-01T12:10:28;31.60;99.90
3626;DHT22;1827;50.534;8.316;2022-08-01T12:13:02;31.80;99.90
3626;DHT22;1827;50.534;8.316;2022-08-01T12:15:33;32.00;99.90
3626;DHT22;1827;50.534;8.316;2022-08-01T12:18:01;32.00;99.90
3626;DHT22;1827;50.534;8.316;2022-08-01T12:20:30;31.30;98.50
3626;DHT22;1827;50.534;8.316;2022-08-01T12:22:57;30.60;98.20
3626;DHT22;1827;50.534;8.316;2022-08-01T12:25:23;29.60;99.10
3626;DHT22;1827;50.534;8.316;2022-08-01T12:27:49;29.60;99.10
3626;DHT22;1827;50.534;8.316;2022-08-01T12:30:20;29.30;99.90
3626;DHT22;1827;50.534;8.316;2022-08-01T12:32:51;29.80;99.90
3626;DHT22;1827;50.534;8.316;2022-08-01T12:35:23;29.70;99.90
3626;DHT22;1827;50.534;8.316;2022-08-01T12:37:51;30.00;99.90
3626;DHT22;1827;50.534;8.316;2022-08-01T12:40:19;30.10;99.20
3626;DHT22;1827;50.534;8.316;2022-08-01T12:42:48;30.60;98.60
3626;DHT22;1827;50.534;8.316;2022-08-01T12:45:20;30.50;99.00
3626;DHT22;1827;50.534;8.316;2022-08-01T12:47:47;30.30;97.50
3626;DHT22;1827;50.534;8.316;2022-08-01T12:50:18;30.30;99.20
3626;DHT22;1827;50.534;8.316;2022-08-01T12:52:45;30.40;98.80
3626;DHT22;1827;50.534;8.316;2022-08-01T12:55:19;30.30;98.70
3626;DHT22;1827;50.534;8.316;2022-08-01T12:57:50;30.00;98.70
3626;DHT22;1827;50.534;8.316;2022-08-01T13:00:22;29.20;99.10
3626;DHT22;1827;50.534;8.316;2022-08-01T13:03:00;29.60;99.20
3626;DHT22;1827;50.534;8.316;2022-08-01T13:05:26;30.50;99.00
3626;DHT22;1827;50.534;8.316;2022-08-01T13:07:52;30.90;98.60
3626;DHT22;1827;50.534;8.316;2022-08-01T13:10:28;30.60;97.10
3626;DHT22;1827;50.534;8.316;2022-08-01T13:12:56;30.30;98.50
3626;DHT22;1827;50.534;8.316;2022-08-01T13:15:25;30.40;98.20
3626;DHT22;1827;50.534;8.316;2022-08-01T13:17:52;30.30;97.50
3626;DHT22;1827;50.534;8.316;2022-08-01T13:20:32;29.30;98.60
3626;DHT22;1827;50.534;8.316;2022-08-01T13:23:11;29.50;97.20
3626;DHT22;1827;50.534;8.316;2022-08-01T13:25:51;29.30;96.00
3626;DHT22;1827;50.534;8.316;2022-08-01T13:28:22;28.70;96.40
3626;DHT22;1827;50.534;8.316;2022-08-01T13:33:40;29.40;97.90
3626;DHT22;1827;50.534;8.316;2022-08-01T13:36:06;29.20;96.20
3626;DHT22;1827;50.534;8.316;2022-08-01T13:38:32;29.70;97.00
3626;DHT22;1827;50.534;8.316;2022-08-01T13:41:16;29.70;96.70
3626;DHT22;1827;50.534;8.316;2022-08-01T13:43:42;28.90;95.90
3626;DHT22;1827;50.534;8.316;2022-08-01T13:46:08;28.80;96.50
3626;DHT22;1827;50.534;8.316;2022-08-01T13:48:34;28.90;97.50
3626;DHT22;1827;50.534;8.316;2022-08-01T13:50:59;28.90;97.20
3626;DHT22;1827;50.534;8.316;2022-08-01T13:53:26;29.10;99.00
3626;DHT22;1827;50.534;8.316;2022-08-01T13:55:52;28.70;96.40
3626;DHT22;1827;50.534;8.316;2022-08-01T13:58:18;28.60;96.90
3626;DHT22;1827;50.534;8.316;2022-08-01T14:00:44;28.60;96.20
3626;DHT22;1827;50.534;8.316;2022-08-01T14:03:12;29.00;96.90
3626;DHT22;1827;50.534;8.316;2022-08-01T14:05:38;29.20;95.50
3626;DHT22;1827;50.534;8.316;2022-08-01T14:08:05;29.30;96.30
3626;DHT22;1827;50.534;8.316;2022-08-01T14:10:31;29.40;95.90
3626;DHT22;1827;50.534;8.316;2022-08-01T14:12:58;30.00;96.90
3626;DHT22;1827;50.534;8.316;2022-08-01T14:15:24;30.30;96.00
3626;DHT22;1827;50.534;8.316;2022-08-01T14:17:50;30.40;96.30
3626;DHT22;1827;50.534;8.316;2022-08-01T14:20:16;30.20;96.60
3626;DHT22;1827;50.534;8.316;2022-08-01T14:22:48;29.80;96.50
3626;DHT22;1827;50.534;8.316;2022-08-01T14:25:15;30.10;96.30
3626;DHT22;1827;50.534;8.316;2022-08-01T14:27:40;29.60;96.30
3626;DHT22;1827;50.534;8.316;2022-08-01T14:30:10;29.80;96.80
3626;DHT22;1827;50.534;8.316;2022-08-01T14:32:36;29.60;95.00
3626;DHT22;1827;50.534;8.316;2022-08-01T14:35:04;29.10;95.10
3626;DHT22;1827;50.534;8.316;2022-08-01T14:37:31;28.90;95.40
3626;DHT22;1827;50.534;8.316;2022-08-01T14:39:58;28.80;95.90
3626;DHT22;1827;50.534;8.316;2022-08-01T14:42:24;28.60;96.10
3626;DHT22;1827;50.534;8.316;2022-08-01T14:44:50;28.60;96.90
3626;DHT22;1827;50.534;8.316;2022-08-01T14:47:16;28.60;97.20
3626;DHT22;1827;50.534;8.316;2022-08-01T14:49:42;28.60;97.10
3626;DHT22;1827;50.534;8.316;2022-08-01T14:52:08;28.40;96.90
3626;DHT22;1827;50.534;8.316;2022-08-01T14:54:35;28.00;96.10
3626;DHT22;1827;50.534;8.316;2022-08-01T14:57:00;28.00;96.60
3626;DHT22;1827;50.534;8.316;2022-08-01T14:59:26;28.80;96.60
3626;DHT22;1827;50.534;8.316;2022-08-01T15:01:52;29.00;95.90
3626;DHT22;1827;50.534;8.316;2022-08-01T15:04:18;29.00;96.00
3626;DHT22;1827;50.534;8.316;2022-08-01T15:06:45;29.00;95.50
3626;DHT22;1827;50.534;8.316;2022-08-01T15:09:10;29.00;95.60
3626;DHT22;1827;50.534;8.316;2022-08-01T15:11:37;28.60;95.40
3626;DHT22;1827;50.534;8.316;2022-08-01T15:14:03;28.60;94.70
3626;DHT22;1827;50.534;8.316;2022-08-01T15:16:47;28.60;95.70
3626;DHT22;1827;50.534;8.316;2022-08-01T15:19:14;28.20;95.70
3626;DHT22;1827;50.534;8.316;2022-08-01T15:21:39;28.20;96.00
3626;DHT22;1827;50.534;8.316;2022-08-01T15:24:06;27.80;95.70
3626;DHT22;1827;50.534;8.316;2022-08-01T15:26:32;27.50;95.60
3626;DHT22;1827;50.534;8.316;2022-08-01T15:28:58;27.70;96.80
3626;DHT22;1827;50.534;8.316;2022-08-01T15:31:24;27.60;96.90
3626;DHT22;1827;50.534;8.316;2022-08-01T15:33:49;27.80;96.40
3626;DHT22;1827;50.534;8.316;2022-08-01T15:36:15;27.50;96.60
3626;DHT22;1827;50.534;8.316;2022-08-01T15:38:41;27.80;97.30
3626;DHT22;1827;50.534;8.316;2022-08-01T15:41:07;27.70;96.60
3626;DHT22;1827;50.534;8.316;2022-08-01T15:43:32;27.30;95.70
3626;DHT22;1827;50.534;8.316;2022-08-01T15:45:58;27.40;96.10
3626;DHT22;1827;50.534;8.316;2022-08-01T15:48:24;27.60;96.50
3626;DHT22;1827;50.534;8.316;2022-08-01T15:50:50;27.60;95.30
3626;DHT22;1827;50.534;8.316;2022-08-01T15:53:15;27.50;95.10
3626;DHT22;1827;50.534;8.316;2022-08-01T15:55:41;27.80;96.00
3626;DHT22;1827;50.534;8.316;2022-08-01T15:58:08;27.90;95.80
3626;DHT22;1827;50.534;8.316;2022-08-01T16:00:34;28.10;97.00
3626;DHT22;1827;50.534;8.316;2022-08-01T16:03:00;28.30;96.60
3626;DHT22;1827;50.534;8.316;2022-08-01T16:05:26;27.80;96.00
3626;DHT22;1827;50.534;8.316;2022-08-01T16:07:51;27.70;96.40
3626;DHT22;1827;50.534;8.316;2022-08-01T16:10:17;27.70;96.60
3626;DHT22;1827;50.534;8.316;2022-08-01T16:12:43;27.60;96.90
3626;DHT22;1827;50.534;8.316;2022-08-01T16:15:09;27.60;96.90
3626;DHT22;1827;50.534;8.316;2022-08-01T16:17:35;27.90;95.90
3626;DHT22;1827;50.534;8.316;2022-08-01T16:20:01;28.00;96.00
3626;DHT22;1827;50.534;8.316;2022-08-01T16:22:27;27.70;94.70
3626;DHT22;1827;50.534;8.316;2022-08-01T16:24:53;27.60;95.40
3626;DHT22;1827;50.534;8.316;2022-08-01T16:27:19;27.50;95.20
3626;DHT22;1827;50.534;8.316;2022-08-01T16:29:45;27.50;94.60
3626;DHT22;1827;50.534;8.316;2022-08-01T16:32:11;27.60;94.40
3626;DHT22;1827;50.534;8.316;2022-08-01T16:34:37;27.50;94.40
3626;DHT22;1827;50.534;8.316;2022-08-01T16:37:03;27.80;94.70
3626;DHT22;1827;50.534;8.316;2022-08-01T16:39:29;28.10;95.30
3626;DHT22;1827;50.534;8.316;2022-08-01T16:41:55;27.90;95.60
3626;DHT22;1827;50.534;8.316;2022-08-01T16:44:22;27.70;96.10
3626;DHT22;1827;50.534;8.316;2022-08-01T16:46:48;27.60;95.30